^^
Datos históricos de la estación: Murcia-Puente Tocinos
Diario Informe para Agosto 5, 2021 Unidades:  Métrico    Ingés   Ambas
Diario Semanal Mensual Anual
  Máxima: Mínima: Promedio:
Temperatura: 8.5 °C 2.7 °C 5.3 °C
Punto de rocio: -0.5 °C -2.1 °C -1.3 °C
Humedad: 72% 52% 63%
Velocidad viento: 10.3km/h 0km/h 5.5km/h
Racha viento: 19.3km/h - -
Viento- - Sur
Presión: 1012.9 hPa 1010.8 hPa -
Precipitación: 0.0 mm    
 
 
Tabla de datos para Agosto 5, 2021
Hora Temperatura Punto de rocio Presión Viento Velocidad viento Racha viento Humedad Intensidad lluvia(por hora) Nubes
00:04 8.5 °C -0.8 °C 1011.1 hPa SSO 8.4 km/h 11.3 km/h 52% 0.0 mm
00:09 8.5 °C -0.8 °C 1011.1 hPa SSO 7 km/h 10 km/h 52% 0.0 mm
00:14 8.4 °C -0.9 °C 1011.1 hPa SSO 6.5 km/h 11.1 km/h 52% 0.0 mm
00:19 8.4 °C -0.8 °C 1011.1 hPa Sur 6.5 km/h 8 km/h 52.3% 0.0 mm
00:24 8.4 °C -0.6 °C 1011.1 hPa SSE 6.5 km/h 8.4 km/h 53% 0.0 mm
00:29 8.4 °C -0.6 °C 1011.0 hPa SSE 5.7 km/h 11.1 km/h 53% 0.0 mm
00:34 8.3 °C -0.8 °C 1011.0 hPa SSE 5 km/h 11.3 km/h 53% 0.0 mm
00:39 8.1 °C -0.9 °C 1011.1 hPa SSE 6.7 km/h 11.3 km/h 53% 0.0 mm
00:44 8 °C -0.8 °C 1011.1 hPa Sur 7.6 km/h 11.3 km/h 54% 0.0 mm
00:49 7.9 °C -0.7 °C 1011.1 hPa SSO 6.9 km/h 9.7 km/h 54.4% 0.0 mm
00:54 8.1 °C -0.5 °C 1011.1 hPa SSO 6.5 km/h 9.7 km/h 54.5% 0.0 mm
00:59 8.2 °C -0.6 °C 1011.0 hPa SSO 6.5 km/h 8.7 km/h 54% 0.0 mm
01:04 8.2 °C -0.6 °C 1011.0 hPa SSO 6.5 km/h 8 km/h 54% 0.0 mm
01:09 8.2 °C -0.6 °C 1011.0 hPa SO 4.7 km/h 6.4 km/h 54% 0.0 mm
01:14 8.2 °C -0.6 °C 1010.9 hPa SO 3.9 km/h 6.4 km/h 54% 0.0 mm
01:19 8.1 °C -0.7 °C 1010.9 hPa SO 1.8 km/h 2.3 km/h 54% 0.0 mm
01:24 7.9 °C -0.6 °C 1010.9 hPa Calm   7.4 km/h 54.8% 0.0 mm
01:29 7.9 °C -0.6 °C 1010.9 hPa Sur 1.7 km/h 8.4 km/h 55% 0.0 mm
01:34 8 °C -0.6 °C 1010.9 hPa OSO 2.9 km/h 8.4 km/h 54.9% 0.0 mm
01:36 7.8 °C -0.7 °C 1010.9 hPa Oeste 2.9 km/h 8 km/h 55% 0.0 mm
01:44 7.3 °C -0.9 °C 1011.0 hPa Oeste 5.8 km/h 8.4 km/h 56% 0.0 mm
01:49 7 °C -1 °C 1011.0 hPa Oeste 4.9 km/h 8 km/h 56.9% 0.0 mm
01:54 6.8 °C -0.9 °C 1011.0 hPa SSO 4.7 km/h 10 km/h 57.9% 0.0 mm
01:59 6.7 °C -1 °C 1011.0 hPa OSO 5.4 km/h 10 km/h 58% 0.0 mm
02:04 6.4 °C -1.1 °C 1011.0 hPa SSO 5.8 km/h 9.7 km/h 58.7% 0.0 mm
02:09 6.3 °C -0.9 °C 1011.0 hPa SSO 5.2 km/h 8.4 km/h 59.9% 0.0 mm
02:14 6.3 °C -0.9 °C 1011.0 hPa SSO 5 km/h 9.5 km/h 60% 0.0 mm
02:19 6.3 °C -0.9 °C 1011.0 hPa Sur 5.5 km/h 9.7 km/h 60% 0.0 mm
02:24 6.2 °C -1 °C 1011.0 hPa SSO 5.8 km/h 9.7 km/h 60% 0.0 mm
02:29 6.2 °C -0.9 °C 1011.0 hPa SO 4.6 km/h 7.4 km/h 60.4% 0.0 mm
02:34 6.2 °C -0.8 °C 1011.0 hPa OSO 3.9 km/h 5.8 km/h 61% 0.0 mm
02:39 6.2 °C -0.8 °C 1011.2 hPa OSO 3.5 km/h 7.4 km/h 61% 0.0 mm
02:44 6.2 °C -0.8 °C 1011.2 hPa SSO 3.2 km/h 9.5 km/h 60.9% 0.0 mm
02:49 6 °C -1.1 °C 1011.2 hPa SE 3.7 km/h 11.3 km/h 60.2% 0.0 mm
02:54 5.7 °C -1.1 °C 1011.2 hPa SSE 3.9 km/h 11.3 km/h 61.8% 0.0 mm
02:59 5.5 °C -1 °C 1011.2 hPa SSE 5.5 km/h 11.3 km/h 62.7% 0.0 mm
03:04 5.6 °C -0.9 °C 1011.2 hPa SSE 6.5 km/h 9.7 km/h 63% 0.0 mm
03:09 5.6 °C -0.9 °C 1011.3 hPa SSE 5.4 km/h 11.1 km/h 63% 0.0 mm
03:14 5.7 °C -1 °C 1011.3 hPa SSE 4.7 km/h 11.3 km/h 62.4% 0.0 mm
03:19 5.7 °C -1 °C 1011.3 hPa Sur 6.1 km/h 11.3 km/h 62% 0.0 mm
03:24 5.8 °C -0.9 °C 1011.3 hPa Sur 6.9 km/h 9.5 km/h 62% 0.0 mm
03:29 5.8 °C -0.9 °C 1011.3 hPa SSO 6.6 km/h 9.3 km/h 62% 0.0 mm
03:34 5.9 °C -0.8 °C 1011.3 hPa SSO 6.5 km/h 9.7 km/h 62% 0.0 mm
03:39 5.9 °C -0.8 °C 1011.3 hPa SSO 5.3 km/h 11.1 km/h 61.9% 0.0 mm
03:44 6.1 °C -0.9 °C 1011.2 hPa OSO 4.7 km/h 11.9 km/h 60.8% 0.0 mm
03:49 6.2 °C -1 °C 1011.2 hPa Oeste 4.7 km/h 11.3 km/h 60% 0.0 mm
03:54 6.1 °C -1.1 °C 1011.3 hPa Oeste 4.7 km/h 3.7 km/h 60% 0.0 mm
03:59 6 °C -1.2 °C 1011.3 hPa Oeste 1.8 km/h 7.6 km/h 60% 0.0 mm
04:04 5.6 °C -1.4 °C 1011.3 hPa Calm   9.7 km/h 60.5% 0.0 mm
04:09 5.3 °C -1.3 °C 1011.4 hPa ESE 2.9 km/h 9.7 km/h 62.4% 0.0 mm
04:14 5.2 °C -1.1 °C 1011.4 hPa SO 4.7 km/h 8 km/h 63.8% 0.0 mm
04:19 5.2 °C -1.1 °C 1011.4 hPa Oeste 3.7 km/h 8 km/h 64% 0.0 mm
04:24 5.2 °C -1.1 °C 1011.4 hPa SSO 3.2 km/h 5.8 km/h 64% 0.0 mm
04:29 5.2 °C -1.1 °C 1011.4 hPa ESE 3 km/h 6.4 km/h 64% 0.0 mm
04:34 5.1 °C -1.2 °C 1011.4 hPa ESE 2.9 km/h 7.4 km/h 63.8% 0.0 mm
04:39 4.8 °C -1.4 °C 1011.4 hPa Este 3.5 km/h 8 km/h 64% 0.0 mm
04:44 4.7 °C -1.5 °C 1011.3 hPa SE 3.9 km/h 10 km/h 64.7% 0.0 mm
04:49 4.4 °C -1.4 °C 1011.3 hPa SSE 5.1 km/h 14 km/h 66.2% 0.0 mm
04:54 4.3 °C -1.3 °C 1011.3 hPa SSE 5.8 km/h 14.8 km/h 67% 0.0 mm
04:59 4.4 °C -1.2 °C 1011.2 hPa SSE 8.2 km/h 14.5 km/h 67% 0.0 mm
05:04 4.6 °C -1.1 °C 1011.2 hPa SSE 9.5 km/h 11.3 km/h 66.8% 0.0 mm
05:09 4.6 °C -1 °C 1011.2 hPa Sur 8.3 km/h 9.7 km/h 66.7% 0.0 mm
05:14 4.7 °C -1.1 °C 1011.1 hPa Sur 7.6 km/h 9.7 km/h 66.1% 0.0 mm
05:19 4.9 °C -1 °C 1011.1 hPa Sur 6.5 km/h 9.5 km/h 65.9% 0.0 mm
05:24 5.1 °C -1 °C 1011.1 hPa SSE 5.8 km/h 9.7 km/h 65% 0.0 mm
05:29 5.1 °C -1.2 °C 1011.1 hPa SE 5.8 km/h 8 km/h 64% 0.0 mm
05:34 5 °C -1.2 °C 1011.1 hPa SSE 5.8 km/h 8 km/h 64.4% 0.0 mm
05:39 5 °C -1.1 °C 1011.1 hPa SSO 5.1 km/h 8 km/h 64.8% 0.0 mm
05:44 5.1 °C -1.2 °C 1010.9 hPa SSO 4.7 km/h 7.4 km/h 64% 0.0 mm
05:49 5.2 °C -1.1 °C 1010.9 hPa Sur 4.2 km/h 7.4 km/h 64% 0.0 mm
05:54 5.2 °C -1.2 °C 1010.9 hPa Sur 3.9 km/h 8 km/h 63.3% 0.0 mm
05:59 5.1 °C -1.2 °C 1010.9 hPa SO 3.2 km/h 5.6 km/h 64% 0.0 mm
06:04 4.9 °C -1.3 °C 1010.9 hPa SO 2.9 km/h 4.8 km/h 64.4% 0.0 mm
06:09 4.7 °C -1.3 °C 1010.9 hPa OSO 3.1 km/h 8.4 km/h 65% 0.0 mm
06:14 4.5 °C -1.4 °C 1010.8 hPa OSO 3.2 km/h 8.7 km/h 65.8% 0.0 mm
06:19 4.3 °C -1.4 °C 1010.8 hPa OSO 4.3 km/h 9.7 km/h 66.8% 0.0 mm
06:24 4.1 °C -1.4 °C 1010.9 hPa OSO 5 km/h 8 km/h 67.2% 0.0 mm
06:29 4 °C -1.4 °C 1010.9 hPa Sur 4.8 km/h 8 km/h 68% 0.0 mm
06:34 3.9 °C -1.5 °C 1010.9 hPa SE 4.7 km/h 4.8 km/h 68% 0.0 mm
06:39 3.8 °C -1.6 °C 1011.0 hPa ESE 3.5 km/h 5.8 km/h 68% 0.0 mm
06:44 3.5 °C -1.8 °C 1011.0 hPa SE 2.9 km/h 7.6 km/h 68.5% 0.0 mm
06:49 3.3 °C -1.7 °C 1011.0 hPa SE 4 km/h 8 km/h 69.8% 0.0 mm
06:54 3.2 °C -1.7 °C 1011.0 hPa SE 4.7 km/h 8 km/h 70% 0.0 mm
06:59 3.2 °C -1.7 °C 1011.0 hPa ESE 4.1 km/h 8 km/h 70% 0.0 mm
07:04 3.2 °C -1.6 °C 1011.0 hPa ESE 3.9 km/h 8 km/h 70.7% 0.0 mm
07:09 3.2 °C -1.7 °C 1011.1 hPa ESE 3.9 km/h 8 km/h 70.4% 0.0 mm
07:14 3.1 °C -1.9 °C 1011.1 hPa SE 3.9 km/h 8.4 km/h 70% 0.0 mm
07:19 2.9 °C -1.9 °C 1011.1 hPa ESE 4.6 km/h 8.4 km/h 70.6% 0.0 mm
07:24 2.9 °C -1.8 °C 1011.3 hPa SE 5 km/h 8 km/h 71.2% 0.0 mm
07:29 2.9 °C -1.7 °C 1011.3 hPa SE 5 km/h 8 km/h 71.9% 0.0 mm
07:34 2.9 °C -1.7 °C 1011.3 hPa SSE 5 km/h 8 km/h 72% 0.0 mm
07:39 2.9 °C -1.8 °C 1011.4 hPa SSE 5 km/h 9.3 km/h 71.5% 0.0 mm
07:44 2.9 °C -1.8 °C 1011.4 hPa SSE 5 km/h 9.7 km/h 71% 0.0 mm
07:49 2.8 °C -1.9 °C 1011.4 hPa SE 5.9 km/h 10 km/h 71% 0.0 mm
07:54 2.7 °C -1.9 °C 1011.5 hPa SSE 6.5 km/h 13 km/h 71.6% 0.0 mm
07:59 2.7 °C -1.9 °C 1011.5 hPa Sur 7.7 km/h 13.7 km/h 71.5% 0.0 mm
08:04 2.7 °C -2.1 °C 1011.5 hPa Sur 8.4 km/h 14.5 km/h 71% 0.0 mm
08:09 2.7 °C -2.1 °C 1011.7 hPa Sur 8.4 km/h 11.3 km/h 71% 0.0 mm
08:14 2.7 °C -2 °C 1011.7 hPa Sur 8.4 km/h 11.1 km/h 71% 0.0 mm
08:19 2.8 °C -1.9 °C 1011.7 hPa SSO 7.5 km/h 11.3 km/h 71% 0.0 mm
08:24 3.1 °C -1.9 °C 1011.7 hPa SO 6.9 km/h 11.1 km/h 70.1% 0.0 mm
08:29 3.3 °C -1.8 °C 1011.7 hPa SSO 7.3 km/h 11.9 km/h 69.2% 0.0 mm
08:34 3.5 °C -1.9 °C 1011.7 hPa SSO 7.6 km/h 13 km/h 68% 0.0 mm
08:39 3.7 °C -1.9 °C 1012.0 hPa SSO 7.6 km/h 12.9 km/h 67.1% 0.0 mm
08:44 3.8 °C -1.9 °C 1012.0 hPa Sur 7.6 km/h 9.7 km/h 66.3% 0.0 mm
08:49 3.9 °C -1.9 °C 1012.0 hPa Sur 5.8 km/h 10 km/h 66% 0.0 mm
08:54 3.9 °C -1.9 °C 1012.1 hPa Sur 4.7 km/h 13 km/h 66% 0.0 mm
08:59 3.9 °C -1.9 °C 1012.1 hPa Sur 7.1 km/h 13.7 km/h 65.8% 0.0 mm
09:04 3.9 °C -1.9 °C 1012.1 hPa SSO 8.4 km/h 14.5 km/h 66% 0.0 mm
09:09 4 °C -1.8 °C 1012.3 hPa SO 7.4 km/h 11.3 km/h 66% 0.0 mm
09:14 4.1 °C -1.7 °C 1012.3 hPa Sur 6.9 km/h 11.3 km/h 65.6% 0.0 mm
09:19 4.2 °C -1.8 °C 1012.3 hPa Sur 5.1 km/h 8 km/h 65% 0.0 mm
09:24 4.2 °C -1.8 °C 1012.4 hPa SO 3.9 km/h 8 km/h 65% 0.0 mm
09:29 4.3 °C -1.7 °C 1012.4 hPa SSO 4.3 km/h 11.1 km/h 65% 0.0 mm
09:34 4.5 °C -1.6 °C 1012.4 hPa SO 4.7 km/h 13.7 km/h 64.5% 0.0 mm
09:39 4.7 °C -1.7 °C 1012.5 hPa SO 5.7 km/h 14.5 km/h 63.1% 0.0 mm
09:44 5 °C -1.6 °C 1012.5 hPa SO 6.5 km/h 13 km/h 62.4% 0.0 mm
09:49 5.3 °C -1.6 °C 1012.5 hPa SSO 7.7 km/h 13 km/h 61.3% 0.0 mm
09:54 5.6 °C -1.6 °C 1012.6 hPa SSO 8.4 km/h 18.5 km/h 59.9% 0.0 mm
09:59 5.7 °C -1.7 °C 1012.6 hPa SSO 8.4 km/h 19.3 km/h 59% 0.0 mm
10:04 5.8 °C -1.7 °C 1012.6 hPa Sur 8.4 km/h 13 km/h 58.5% 0.0 mm
10:09 5.7 °C -1.9 °C 1012.7 hPa Sur 7.5 km/h 12.9 km/h 58.3% 0.0 mm
10:14 5.7 °C -1.8 °C 1012.7 hPa Sur 6.9 km/h 14.8 km/h 58.7% 0.0 mm
10:19 5.7 °C -1.9 °C 1012.7 hPa Sur 8.5 km/h 16.7 km/h 58% 0.0 mm
10:24 5.8 °C -1.8 °C 1012.9 hPa SSO 9.5 km/h 16.1 km/h 58% 0.0 mm
10:29 5.9 °C -1.9 °C 1012.9 hPa SSO 10 km/h 19 km/h 57.3% 0.0 mm
10:34 6.1 °C -1.8 °C 1012.9 hPa SSO 10.3 km/h 19.3 km/h 57% 0.0 mm
10:36 6.2 °C -1.7 °C 1012.9 hPa SSO 10.3 km/h 16.7 km/h 57% 0.0 mm
Murcia-Puente Tocinos, Espa?a
Compliments of Weather Underground - 2.25 mb

La estación de MeteoMurcia.com, publica sus datos en los siguientes proyectos:

Weather Underground PWS IMURCIAP2 Meteoclimatic www.awekas.at

W3Counter
Web Analytics